Latest Weather Observations for Birdsville

IDQ60801

Issued at 2:32 pm EST Friday 27 May 2016 (issued every 30 minutes, with the page automatically refreshed every 10 minutes)

About weather observations | Map of weather stations | Latest weather observations for QLD | Other Formats
Station Details ID: 038026 Name: BIRDSVILLE AIRPORT Lat: -25.90 Lon: 139.35 Height: 46.6 m
Data from the previous 72 hours. | See also: Recent months at Birdsville
Date/Time
EST
Temp
°C
App
Temp
°C
Dew
Point
Rel
Hum
%
Delta-T
°C
Wind Press
QNH
hPa
Press
MSL
hPa
Rain
since 9 am
mm
Dir
 
Spd
km/h
Gust
km/h
Spd
kts
Gust
kts
27/02:30pm 19.9 17.0 9.5 51 5.5 SW 15 20 8 11 1016.4 - 0.2
27/02:00pm 19.4 15.7 9.6 53 5.2 SW 19 22 10 12 1016.6 - 0.0
27/01:30pm 19.1 15.4 10.1 56 4.8 SW 20 24 11 13 1017.0 - 0.0
27/01:00pm 19.2 15.3 10.7 58 4.6 SSW 22 30 12 16 1017.4 - 0.0
27/12:30pm 18.7 15.7 11.8 64 3.8 SW 19 24 10 13 1017.5 - 0.0
27/12:00pm 18.1 16.0 12.3 69 3.2 SW 15 20 8 11 1017.9 1017.9 0.0
27/11:30am 17.9 15.0 12.4 70 3.1 SSW 19 22 10 12 1017.9 - 0.0
27/11:00am 17.6 14.0 13.1 75 2.5 SW 24 30 13 16 1018.8 - 0.0
27/10:30am 18.3 15.7 13.2 72 2.9 SSW 19 24 10 13 1018.1 - 0.0
27/10:00am 18.0 15.4 13.3 74 2.7 SW 19 22 10 12 1018.0 - 0.0
27/09:30am 17.5 16.0 14.2 81 1.9 SW 15 17 8 9 1017.4 - 0.0
27/09:00am 16.9 15.8 14.2 84 1.5 SW 13 17 7 9 1017.3 1017.2 1.8
27/08:30am 16.6 15.0 13.9 84 1.5 SW 15 19 8 10 1017.2 - 1.8
27/08:00am 16.5 14.5 14.0 85 1.4 SW 17 20 9 11 1016.6 - 1.6
27/07:30am 16.8 15.4 14.4 86 1.4 SW 15 20 8 11 1016.4 - 1.2
27/07:00am 16.9 16.6 14.4 85 1.4 SW 9 15 5 8 1015.5 - 0.8
27/06:30am 16.6 16.7 14.4 87 1.3 SW 7 11 4 6 1015.0 - 0.8
27/06:00am 16.4 16.4 14.2 87 1.3 SW 7 9 4 5 1015.2 1015.2 0.8
27/05:30am 16.5 15.2 13.6 83 1.6 SSW 13 17 7 9 1014.8 - 0.6
27/05:00am 17.2 14.6 13.3 78 2.2 SSW 19 22 10 12 1014.2 - 0.2
27/04:30am 17.9 15.0 12.4 70 3.1 S 19 20 10 11 1014.0 - 0.0
27/04:00am 18.4 14.6 11.0 62 4.0 S 22 32 12 17 1014.0 - 0.0
27/03:30am 18.8 14.2 11.1 61 4.2 S 26 32 14 17 1013.3 - 0.0
27/03:00am 19.4 15.4 10.4 56 4.9 S 22 30 12 16 1013.3 1013.3 0.0
27/02:30am 19.4 15.8 10.4 56 4.9 S 20 28 11 15 1013.0 - 0.0
27/02:00am 19.7 15.2 10.1 54 5.2 S 24 28 13 15 1012.8 - 0.0
27/01:30am 19.9 14.5 9.5 51 5.5 S 28 37 15 20 1012.4 - 0.0
27/01:00am 20.1 15.1 9.7 51 5.6 S 26 35 14 19 1012.9 - 0.0
27/12:30am 20.4 16.4 10.5 53 5.4 S 22 30 12 16 1013.1 - 0.0
27/12:00am 20.7 17.0 11.6 56 5.1 S 22 30 12 16 1013.2 1013.1 0.0
 
Date/Time
EST
Temp
°C
App
Temp
°C
Dew
Point
Rel
Hum
%
Delta-T
°C
Wind Press
QNH
hPa
Press
MSL
hPa
Rain
since 9 am
mm
Dir
 
Spd
km/h
Gust
km/h
Spd
kts
Gust
kts
26/11:30pm 21.3 17.0 11.9 55 5.3 S 26 33 14 18 1013.5 - 0.0
26/11:00pm 21.8 18.8 12.1 54 5.5 S 19 24 10 13 1013.1 - 0.0
26/10:30pm 22.0 18.2 12.3 54 5.5 SSW 24 33 13 18 1013.4 - 0.0
26/10:00pm 22.2 19.4 12.7 55 5.4 SSW 19 22 10 12 1013.6 - 0.0
26/09:30pm 22.5 19.6 13.0 55 5.5 SSW 20 22 11 12 1013.5 - 0.0
26/09:00pm 22.8 20.1 13.0 54 5.6 SW 19 22 10 12 1013.4 1013.3 0.0
26/08:30pm 23.5 20.3 13.1 52 6.0 SW 22 26 12 14 1013.3 - 0.0
26/08:00pm 24.1 20.9 13.0 50 6.4 SW 22 28 12 15 1012.6 - 0.0
26/07:30pm 24.7 21.9 13.3 49 6.7 SW 20 24 11 13 1012.2 - 0.0
26/07:00pm 25.3 21.7 13.2 47 7.1 SW 24 30 13 16 1011.7 - 0.0
26/06:30pm 25.9 23.6 13.1 45 7.5 SW 17 20 9 11 1011.1 - 0.0
26/06:00pm 26.5 24.1 12.5 41 8.1 SW 17 22 9 12 1010.7 1010.7 0.0
26/05:30pm 27.6 24.6 12.4 39 8.9 WSW 20 26 11 14 1010.6 - 0.0
26/05:00pm 27.9 24.4 12.3 38 9.1 WSW 22 30 12 16 1010.4 - 0.0
26/04:30pm 28.7 26.2 12.2 36 9.6 WSW 17 24 9 13 1010.2 - 0.0
26/04:00pm 28.6 25.8 12.5 37 9.4 SW 19 24 10 13 1010.0 - 0.0
26/03:30pm 28.8 26.9 13.1 38 9.3 SW 15 20 8 11 1010.0 - 0.0
26/03:00pm 28.7 26.9 13.4 39 9.1 SW 15 24 8 13 1010.0 1009.9 0.0
26/02:30pm 27.7 25.5 13.3 41 8.5 SSW 17 24 9 13 1010.0 - 0.0
26/02:00pm 27.6 24.8 13.2 41 8.5 SSW 20 32 11 17 1010.4 - 0.0
26/01:30pm 27.4 24.3 13.4 42 8.3 SW 22 30 12 16 1010.8 - 0.0
26/01:00pm 27.7 24.7 13.6 42 8.4 SW 22 26 12 14 1011.0 - 0.0
26/12:30pm 28.4 26.0 13.9 41 8.7 WSW 19 28 10 15 1011.4 - 0.0
26/12:00pm 27.2 25.5 13.5 42 8.1 W 15 20 8 11 1011.6 1011.5 0.0
26/11:30am 26.3 24.1 13.4 45 7.6 WSW 17 22 9 12 1011.8 - 0.0
26/11:00am 26.4 24.0 13.9 46 7.4 WSW 19 24 10 13 1012.0 - 0.0
26/10:30am 26.0 23.3 13.5 46 7.4 W 20 26 11 14 1012.1 - 0.0
26/10:00am 25.5 22.1 13.7 48 7.0 W 24 32 13 17 1012.1 - 0.0
26/09:30am 25.4 21.4 14.2 50 6.7 WNW 28 37 15 20 1012.0 - 0.0
26/09:00am 24.5 20.7 14.6 54 5.9 WNW 28 39 15 21 1011.7 1011.6 0.0
26/08:30am 24.2 20.7 14.6 55 5.7 NNW 26 32 14 17 1011.0 - 0.0
26/08:00am 22.5 19.6 14.1 59 4.9 NNW 22 30 12 16 1010.8 - 0.0
26/07:30am 21.9 19.0 14.0 61 4.6 NNW 22 30 12 16 1010.7 - 0.0
26/07:00am 22.0 19.1 13.9 60 4.7 NNW 22 28 12 15 1010.6 - 0.0
26/06:30am 22.4 19.5 14.0 59 4.9 NNW 22 28 12 15 1010.4 - 0.0
26/06:00am 22.8 19.9 14.1 58 5.1 NNW 22 28 12 15 1010.3 1010.2 0.0
26/05:30am 22.6 20.1 14.2 59 4.9 NNW 20 26 11 14 1010.2 - 0.0
26/05:00am 21.4 19.5 14.3 64 4.2 NNW 17 20 9 11 1010.2 - 0.0
26/04:30am 20.7 18.8 14.1 66 3.8 N 17 19 9 10 1010.2 - 0.0
26/04:00am 21.1 18.8 14.0 64 4.1 NNW 19 20 10 11 1010.4 - 0.0
26/03:30am 20.8 18.9 14.2 66 3.8 NNW 17 17 9 9 1010.6 - 0.0
26/03:00am 20.6 18.6 14.0 66 3.8 NNW 17 17 9 9 1010.9 1010.7 0.0
26/02:30am 20.6 19.0 13.8 65 3.9 NNW 15 15 8 8 1011.1 - 0.0
26/02:00am 20.9 19.7 14.1 65 4.0 N 13 15 7 8 1011.2 - 0.0
26/01:30am 21.1 19.4 13.5 62 4.4 N 15 17 8 9 1011.6 - 0.0
26/01:00am 21.3 19.7 14.0 63 4.2 N 15 17 8 9 1011.6 - 0.0
26/12:30am 21.5 20.7 13.9 62 4.4 N 11 11 6 6 1011.8 - 0.0
26/12:00am 21.9 21.1 14.0 61 4.6 NNW 11 13 6 7 1011.9 1011.7 0.0
 
Date/Time
EST
Temp
°C
App
Temp
°C
Dew
Point
Rel
Hum
%
Delta-T
°C
Wind Press
QNH
hPa
Press
MSL
hPa
Rain
since 9 am
mm
Dir
 
Spd
km/h
Gust
km/h
Spd
kts
Gust
kts
25/11:30pm 22.0 20.8 13.9 60 4.7 NNW 13 15 7 8 1011.9 - 0.0
25/11:00pm 22.4 21.2 14.0 59 4.9 NNW 13 15 7 8 1012.0 - 0.0
25/10:30pm 22.3 21.0 13.6 58 5.0 NNW 13 13 7 7 1012.1 - 0.0
25/10:00pm 22.8 21.5 13.8 57 5.3 NNW 13 13 7 7 1012.2 - 0.0
25/09:30pm 23.4 22.1 13.8 54 5.6 NNW 13 15 7 8 1012.4 - 0.0
25/09:00pm 23.1 22.2 13.8 55 5.4 N 11 13 6 7 1012.4 1012.3 0.0
25/08:30pm 23.6 22.4 12.9 51 6.2 NNW 11 11 6 6 1012.3 - 0.0
25/08:00pm 25.0 24.2 13.9 50 6.5 NNW 11 11 6 6 1012.1 - 0.0
25/07:30pm 25.3 24.0 13.8 49 6.8 NW 13 15 7 8 1012.0 - 0.0
25/07:00pm 26.4 24.7 13.5 45 7.6 NW 15 15 8 8 1011.8 - 0.0
25/06:30pm 27.2 25.7 13.2 42 8.2 NW 13 15 7 8 1011.5 - 0.0
25/06:00pm 28.1 26.8 12.4 37 9.2 NW 11 15 6 8 1011.2 1011.1 0.0
25/05:30pm 29.9 27.3 11.9 33 10.5 NW 17 22 9 12 1011.1 - 0.0
25/05:00pm 31.0 28.2 11.4 30 11.4 NNW 17 24 9 13 1011.1 - 0.0
25/04:30pm 30.5 27.2 11.0 30 11.2 NW 19 26 10 14 1011.1 - 0.0
25/04:00pm 31.5 28.1 11.3 29 11.8 NNW 20 28 11 15 1011.1 - 0.0
25/03:30pm 31.8 28.5 11.6 29 11.8 NW 20 28 11 15 1011.0 - 0.0
25/03:00pm 31.5 27.4 11.3 29 11.8 NNW 24 32 13 17 1011.2 1011.1 0.0
25/02:30pm 31.4 28.2 11.2 29 11.7 NNW 19 30 10 16 1011.6 - 0.0
25/02:00pm 31.2 27.8 10.5 28 11.9 WNW 19 22 10 12 1012.1 - 0.0
25/01:30pm 30.2 26.7 10.2 29 11.4 N 19 26 10 14 1012.6 - 0.0
25/01:00pm 29.8 25.5 9.3 28 11.5 N 22 28 12 15 1013.0 - 0.0
25/12:30pm 29.4 25.1 7.9 26 11.7 N 20 26 11 14 1013.7 - 0.0
25/12:00pm 29.0 24.6 7.6 26 11.6 NNE 20 26 11 14 1014.3 1014.2 0.0
25/11:30am 26.7 22.1 5.6 26 10.9 NE 19 24 10 13 1014.8 - 0.0
25/11:00am 25.4 20.9 6.1 29 10.0 NE 19 24 10 13 1015.4 - 0.0
25/10:30am 24.0 18.8 5.4 30 9.4 NE 22 26 12 14 1015.6 - 0.0
25/10:00am 22.2 16.8 4.7 32 8.6 NE 22 28 12 15 1015.9 - 0.0
25/09:30am 20.8 15.2 3.5 32 8.3 NE 22 26 12 14 1015.9 - 0.0
25/09:00am 19.5 15.1 4.8 38 7.1 NE 17 22 9 12 1015.7 1015.7 0.0
25/08:30am 18.1 14.7 5.7 44 6.1 ESE 13 17 7 9 1015.8 - 0.0
25/08:00am 16.3 13.6 7.5 56 4.4 ESE 11 15 6 8 1015.8 - 0.0
25/07:30am 14.8 13.1 8.5 66 3.2 ESE 7 9 4 5 1015.9 - 0.0
25/07:00am 15.0 13.0 8.7 66 3.2 ESE 9 9 5 5 1015.8 - 0.0
25/06:30am 15.2 14.9 8.7 65 3.3 CALM 0 0 0 0 1015.5 - 0.0
25/06:00am 15.1 14.7 8.1 63 3.5 CALM 0 0 0 0 1015.4 1015.4 0.0
25/05:30am 15.5 14.4 8.3 62 3.6 ESE 4 6 2 3 1015.3 - 0.0
25/05:00am 15.6 14.0 7.9 60 3.9 ESE 6 7 3 4 1015.4 - 0.0
25/04:30am 16.2 13.7 8.4 60 4.0 ESE 11 11 6 6 1015.3 - 0.0
25/04:00am 16.5 14.0 8.0 57 4.3 ESE 11 11 6 6 1015.6 - 0.0
25/03:30am 16.6 14.5 8.1 57 4.3 ESE 9 11 5 6 1015.9 - 0.0
25/03:00am 16.7 14.3 8.7 59 4.1 ESE 11 13 6 7 1016.0 1016.0 0.0
25/02:30am 16.4 15.1 9.1 62 3.8 ESE 6 9 3 5 1015.9 - 0.0
25/02:00am 16.9 15.6 9.3 61 4.0 ESE 6 7 3 4 1016.1 - 0.0
25/01:30am 16.9 16.7 9.1 60 4.0 CALM 0 0 0 0 1016.6 - 0.0
25/01:00am 17.4 15.9 9.3 59 4.2 ESE 7 11 4 6 1016.7 - 0.0
25/12:30am 18.2 16.3 9.0 55 4.8 ESE 9 11 5 6 1017.1 - 0.0
25/12:00am 18.9 16.1 8.6 51 5.3 ESE 13 17 7 9 1017.3 1017.2 0.0
 
Date/Time
EST
Temp
°C
App
Temp
°C
Dew
Point
Rel
Hum
%
Delta-T
°C
Wind Press
QNH
hPa
Press
MSL
hPa
Rain
since 9 am
mm
Dir
 
Spd
km/h
Gust
km/h
Spd
kts
Gust
kts
24/11:30pm 18.6 15.9 8.8 53 5.1 SE 13 17 7 9 1017.4 - 0.0
24/11:00pm 19.0 15.8 8.6 51 5.4 SSE 15 19 8 10 1017.9 - 0.0
24/10:30pm 19.2 16.5 9.1 52 5.3 SSE 13 17 7 9 1017.9 - 0.0
24/10:00pm 19.8 17.1 9.1 50 5.6 SSE 13 17 7 9 1017.9 - 0.0
24/09:30pm 20.3 18.0 8.9 48 6.0 SE 11 13 6 7 1017.7 - 0.0
24/09:00pm 20.5 18.1 8.8 47 6.2 SSE 11 13 6 7 1017.7 1017.6 0.0
24/08:30pm 21.0 18.8 8.0 43 6.8 SSE 9 11 5 6 1017.6 - 0.0
24/08:00pm 21.1 19.2 7.7 42 6.9 S 7 9 4 5 1017.6 - 0.0
24/07:30pm 21.7 19.4 7.5 40 7.4 S 9 11 5 6 1017.5 - 0.0
24/07:00pm 22.3 20.0 7.3 38 7.8 S 9 11 5 6 1017.2 - 0.0
24/06:30pm 23.6 21.3 7.3 35 8.5 S 9 11 5 6 1016.8 - 0.0
24/06:00pm 24.6 21.8 6.8 32 9.3 S 11 15 6 8 1016.6 1016.6 0.0
24/05:30pm 25.8 22.1 6.4 29 10.1 S 15 19 8 10 1016.7 - 0.0
24/05:00pm 26.5 22.8 6.5 28 10.5 SSE 15 19 8 10 1016.6 - 0.0
24/04:30pm 26.5 22.7 6.0 27 10.6 SSE 15 19 8 10 1016.5 - 0.0
24/04:00pm 26.3 22.9 5.8 27 10.6 SSE 13 17 7 9 1016.6 - 0.0
24/03:30pm 26.2 22.4 5.7 27 10.6 SSE 15 19 8 10 1017.0 - 0.0
24/03:00pm 26.2 22.8 5.7 27 10.6 SSE 13 19 7 10 1017.1 1017.0 0.0

Other Formats:

Comma delimited format used in spreadsheet applications
http://www.bom.gov.au/fwo/IDQ60801/IDQ60801.95482.axf

JavaScript Object Notation format (JSON) in row-major order
http://www.bom.gov.au/fwo/IDQ60801/IDQ60801.95482.json